Time;durP1;ratioP1;P1;durP2;ratioP2;P2;SDS_P1;SDS_P2;PMS_P1;PMS_P2;Temp;Humidity;BMP_temperature;BMP_pressure;BME280_temperature;BME280_humidity;BME280_pressure;Samples;Min_cycle;Max_cycle;Signal;HPM_P1;HPM_P2
2022/06/19 00:00:47;;;;;;;;;;;;;;;;;;10393839;28;20116;-47
2022/06/19 00:05:47;;;;;;;4.20;1.92;;;;;;;;;;10389584;28;20030;-47
2022/06/19 00:10:48;;;;;;;8.00;1.80;;;;;;;;;;10389122;28;20057;-46
2022/06/19 00:15:49;;;;;;;7.07;2.08;;;;;;;;;;10397087;28;20405;-46
2022/06/19 00:20:50;;;;;;;5.18;1.98;;;;;;;;;;10382850;28;20490;-46
2022/06/19 00:25:50;;;;;;;3.90;2.03;;;;;;;;;;10373346;28;20470;-47
2022/06/19 00:30:51;;;;;;;2.97;1.90;;;;;;;;;;10393551;28;20096;-46
2022/06/19 00:35:51;;;;;;;5.97;1.83;;;;;;;;;;10401303;28;20021;-47
2022/06/19 00:40:57;;;;;;;4.20;1.88;;;;;;;;;;10391044;28;20025;-47
2022/06/19 00:46:40;;;;;;;7.03;1.95;;;;;;;;;;10385643;28;20151;-46
2022/06/19 00:51:42;;;;;;;7.75;2.17;;;;;;;;;;10374991;28;20029;-49
2022/06/19 00:56:43;;;;;;;2.38;1.50;;;;;;;;;;10394124;28;20056;-50
2022/06/19 01:01:44;;;;;;;6.07;2.00;;;;;;;;;;10399003;28;20029;-46
2022/06/19 01:06:45;;;;;;;2.38;1.65;;;;;;;;;;10387210;28;20090;-47
2022/06/19 01:11:46;;;;;;;6.22;1.80;;;;;;;;;;10390438;28;20088;-46
2022/06/19 01:16:46;;;;;;;6.15;1.70;;;;;;;;;;10399154;28;20041;-47
2022/06/19 01:22:16;;;;;;;4.90;1.73;;;;;;;;;;10402024;28;20030;-47
2022/06/19 01:32:37;;;;;;;6.43;1.90;;;;;;;;;;10384033;28;20176;-47
2022/06/19 01:37:40;;;;;;;5.07;1.60;;;;;;;;;;10375908;28;20033;-47
2022/06/19 01:42:41;;;;;;;3.95;1.67;;;;;;;;;;10395173;28;20106;-48
2022/06/19 01:47:43;;;;;;;6.93;1.70;;;;;;;;;;10386849;28;20288;-45
2022/06/19 01:52:44;;;;;;;3.20;1.83;;;;;;;;;;10402231;28;20172;-46
2022/06/19 01:57:54;;;;;;;3.58;1.77;;;;;;;;;;10396024;28;20044;-46
2022/06/19 02:03:08;;;;;;;4.70;1.63;;;;;;;;;;10370849;28;20096;-47
2022/06/19 02:08:10;;;;;;;2.78;1.50;;;;;;;;;;10370988;28;20046;-46
2022/06/19 02:13:14;;;;;;;3.08;1.70;;;;;;;;;;10381888;28;20096;-46
2022/06/19 02:18:23;;;;;;;4.65;1.58;;;;;;;;;;10393981;28;20500;-45
2022/06/19 02:23:37;;;;;;;3.53;1.70;;;;;;;;;;10395537;28;20465;-45
2022/06/19 02:28:42;;;;;;;5.35;1.77;;;;;;;;;;10382757;28;20048;-46
2022/06/19 02:34:08;;;;;;;5.53;1.48;;;;;;;;;;10387988;28;20029;-45
2022/06/19 02:39:42;;;;;;;9.20;1.90;;;;;;;;;;10370743;28;20033;-46
2022/06/19 02:44:43;;;;;;;3.47;1.63;;;;;;;;;;10400155;28;20087;-47
2022/06/19 02:49:44;;;;;;;4.07;1.60;;;;;;;;;;10381017;28;20061;-47
2022/06/19 02:54:45;;;;;;;2.47;1.55;;;;;;;;;;10372211;28;20037;-48
2022/06/19 02:59:45;;;;;;;2.63;1.55;;;;;;;;;;10379264;28;20034;-47
2022/06/19 03:05:10;;;;;;;3.58;1.70;;;;;;;;;;10385049;28;20049;-47
2022/06/19 03:10:11;;;;;;;2.42;1.77;;;;;;;;;;10376336;28;20033;-47
2022/06/19 03:15:15;;;;;;;1.40;1.30;;;;;;;;;;10391192;28;20381;-46
2022/06/19 03:20:22;;;;;;;2.00;1.58;;;;;;;;;;10379653;28;20068;-49
2022/06/19 03:25:23;;;;;;;1.55;1.45;;;;;;;;;;10403541;28;20053;-46
2022/06/19 03:30:24;;;;;;;3.42;1.52;;;;;;;;;;10392140;28;20133;-45
2022/06/19 03:35:24;;;;;;;4.57;1.75;;;;;;;;;;10392471;28;20037;-46
2022/06/19 03:40:25;;;;;;;3.55;1.50;;;;;;;;;;10368964;28;20382;-46
2022/06/19 03:45:25;;;;;;;3.20;1.50;;;;;;;;;;10385575;28;20432;-46
2022/06/19 03:50:26;;;;;;;3.15;1.73;;;;;;;;;;10388250;28;20029;-47
2022/06/19 03:55:26;;;;;;;2.50;1.98;;;;;;;;;;10379978;28;20041;-46
2022/06/19 04:00:27;;;;;;;1.98;1.40;;;;;;;;;;10379977;28;20086;-48
2022/06/19 04:05:28;;;;;;;7.25;1.55;;;;;;;;;;10377673;28;20064;-46
2022/06/19 04:10:28;;;;;;;2.50;1.65;;;;;;;;;;10392265;28;20440;-47
2022/06/19 04:15:29;;;;;;;3.88;1.70;;;;;;;;;;10392425;28;20489;-47
2022/06/19 04:20:30;;;;;;;4.32;1.80;;;;;;;;;;10391633;28;20040;-46
2022/06/19 04:25:30;;;;;;;8.02;1.60;;;;;;;;;;10378821;28;20469;-46
2022/06/19 04:30:31;;;;;;;5.80;1.40;;;;;;;;;;10382106;28;20512;-46
2022/06/19 04:35:31;;;;;;;4.30;1.48;;;;;;;;;;10386323;28;20385;-49
2022/06/19 04:40:37;;;;;;;2.15;1.50;;;;;;;;;;10383305;28;20409;-48
2022/06/19 04:45:38;;;;;;;6.03;1.40;;;;;;;;;;10392543;28;20022;-48
2022/06/19 04:50:39;;;;;;;1.48;1.38;;;;;;;;;;10385278;28;20099;-48
2022/06/19 04:55:40;;;;;;;3.50;1.50;;;;;;;;;;10396992;28;20042;-47
2022/06/19 05:00:40;;;;;;;2.75;1.30;;;;;;;;;;10396956;28;20080;-47
2022/06/19 05:05:41;;;;;;;17.75;2.10;;;;;;;;;;10396350;28;20559;-46
2022/06/19 05:10:42;;;;;;;3.97;1.58;;;;;;;;;;10395684;28;20033;-45
2022/06/19 05:15:44;;;;;;;3.05;1.52;;;;;;;;;;10384765;28;20474;-46
2022/06/19 05:21:04;;;;;;;9.15;1.80;;;;;;;;;;10387103;28;20033;-45
2022/06/19 05:26:16;;;;;;;4.47;1.90;;;;;;;;;;10406162;28;20034;-46
2022/06/19 05:31:17;;;;;;;2.92;1.55;;;;;;;;;;10403343;28;20033;-46
2022/06/19 05:36:19;;;;;;;5.00;2.13;;;;;;;;;;10410152;28;20078;-48
2022/06/19 05:41:20;;;;;;;3.20;1.80;;;;;;;;;;10414455;28;20684;-46
2022/06/19 05:46:21;;;;;;;5.05;2.00;;;;;;;;;;10379225;28;20033;-46
2022/06/19 05:51:24;;;;;;;5.55;2.00;;;;;;;;;;10371043;28;20069;-48
2022/06/19 05:56:27;;;;;;;6.13;1.77;;;;;;;;;;10377181;28;20083;-47
2022/06/19 06:01:28;;;;;;;3.50;1.85;;;;;;;;;;10380939;28;20116;-47
2022/06/19 06:06:31;;;;;;;4.10;1.80;;;;;;;;;;10379148;28;20053;-46
2022/06/19 06:11:32;;;;;;;4.78;1.95;;;;;;;;;;10379383;28;20035;-46
2022/06/19 06:16:33;;;;;;;7.88;1.80;;;;;;;;;;10381504;28;20122;-45
2022/06/19 06:21:33;;;;;;;9.18;1.67;;;;;;;;;;10383236;28;20029;-47
2022/06/19 06:26:34;;;;;;;5.53;1.90;;;;;;;;;;10398091;28;20144;-46
2022/06/19 06:31:36;;;;;;;9.25;2.08;;;;;;;;;;10390816;28;20397;-46
2022/06/19 06:36:36;;;;;;;10.85;2.05;;;;;;;;;;10388586;28;20033;-46
2022/06/19 06:41:37;;;;;;;4.88;1.73;;;;;;;;;;10386781;28;20033;-48
2022/06/19 06:46:38;;;;;;;10.93;4.25;;;;;;;;;;10379415;28;20049;-52
2022/06/19 06:51:39;;;;;;;16.02;4.60;;;;;;;;;;10389729;28;20060;-56
2022/06/19 06:56:40;;;;;;;13.10;4.18;;;;;;;;;;10407580;28;20466;-55
2022/06/19 07:01:41;;;;;;;11.82;4.80;;;;;;;;;;10374726;28;20194;-48
2022/06/19 07:06:41;;;;;;;10.70;4.90;;;;;;;;;;10388571;28;20104;-51
2022/06/19 07:11:46;;;;;;;17.98;5.07;;;;;;;;;;10383570;28;20026;-48
2022/06/19 07:16:47;;;;;;;10.02;5.30;;;;;;;;;;10393377;28;20035;-49
2022/06/19 07:21:47;;;;;;;16.67;5.32;;;;;;;;;;10386060;28;20029;-48
2022/06/19 07:26:48;;;;;;;9.93;4.80;;;;;;;;;;10376044;28;20045;-50
2022/06/19 07:31:48;;;;;;;18.45;5.10;;;;;;;;;;10367030;28;20038;-51
2022/06/19 07:36:49;;;;;;;10.52;5.28;;;;;;;;;;10370980;28;20474;-50
2022/06/19 07:41:50;;;;;;;7.72;5.20;;;;;;;;;;10382747;28;20037;-48
2022/06/19 07:52:09;;;;;;;6.88;5.20;;;;;;;;;;10378770;28;20457;-49
2022/06/19 07:57:10;;;;;;;10.63;5.82;;;;;;;;;;10373859;28;20025;-51
2022/06/19 08:02:10;;;;;;;7.05;5.78;;;;;;;;;;10385502;28;20018;-56
2022/06/19 08:07:15;;;;;;;11.15;5.60;;;;;;;;;;10395071;28;20057;-52
2022/06/19 08:12:16;;;;;;;15.60;6.13;;;;;;;;;;10383017;28;20022;-53
2022/06/19 08:17:16;;;;;;;10.57;5.40;;;;;;;;;;10373640;28;20397;-52
2022/06/19 08:22:17;;;;;;;19.50;4.95;;;;;;;;;;10372499;28;20041;-51
2022/06/19 08:27:17;;;;;;;9.50;5.28;;;;;;;;;;10396188;28;20212;-52
2022/06/19 08:32:18;;;;;;;9.57;4.75;;;;;;;;;;10379442;28;20022;-50
2022/06/19 08:37:18;;;;;;;10.93;4.60;;;;;;;;;;10388693;28;20022;-49
2022/06/19 08:42:56;;;;;;;8.95;4.57;;;;;;;;;;10390546;28;20018;-50
2022/06/19 08:48:37;;;;;;;8.73;4.38;;;;;;;;;;10372559;28;20252;-50
2022/06/19 08:54:21;;;;;;;8.32;4.65;;;;;;;;;;10384227;28;20041;-50
2022/06/19 09:00:12;;;;;;;5.90;4.32;;;;;;;;;;10382233;28;20030;-50
2022/06/19 09:05:44;;;;;;;6.60;4.15;;;;;;;;;;10389838;28;20066;-50
2022/06/19 09:11:28;;;;;;;8.75;4.10;;;;;;;;;;10397252;28;20470;-50
2022/06/19 09:17:11;;;;;;;8.48;3.58;;;;;;;;;;10391717;28;20080;-50
2022/06/19 09:22:56;;;;;;;6.85;4.28;;;;;;;;;;10399681;28;20036;-48
2022/06/19 09:28:18;;;;;;;7.30;4.10;;;;;;;;;;10381235;28;20406;-49
2022/06/19 09:34:00;;;;;;;4.55;3.60;;;;;;;;;;10382341;28;20021;-48
2022/06/19 09:39:17;;;;;;;6.40;3.95;;;;;;;;;;10407299;28;20542;-50
2022/06/19 09:44:39;;;;;;;7.20;3.67;;;;;;;;;;10387553;28;20034;-49
2022/06/19 09:49:47;;;;;;;6.18;3.33;;;;;;;;;;10380289;28;20033;-48
2022/06/19 09:55:22;;;;;;;4.80;3.00;;;;;;;;;;10381094;28;20032;-48
2022/06/19 10:00:28;;;;;;;4.38;3.30;;;;;;;;;;10384905;28;20084;-52
2022/06/19 10:05:41;;;;;;;4.72;2.92;;;;;;;;;;10382525;28;20046;-52
2022/06/19 10:11:08;;;;;;;4.35;3.13;;;;;;;;;;10382188;28;20102;-51
2022/06/19 10:16:47;;;;;;;5.13;2.90;;;;;;;;;;10373708;28;20053;-49
2022/06/19 10:22:15;;;;;;;3.10;2.80;;;;;;;;;;10383387;28;20084;-47
2022/06/19 10:27:34;;;;;;;3.00;2.60;;;;;;;;;;10373420;28;20037;-50
2022/06/19 10:32:46;;;;;;;4.22;2.75;;;;;;;;;;10397947;28;20495;-48
2022/06/19 10:38:07;;;;;;;5.97;2.88;;;;;;;;;;10389205;28;20658;-55
2022/06/19 10:43:45;;;;;;;4.32;2.63;;;;;;;;;;10382316;28;20034;-48
2022/06/19 10:49:26;;;;;;;3.78;2.45;;;;;;;;;;10384509;28;20420;-48
2022/06/19 10:54:41;;;;;;;4.30;2.80;;;;;;;;;;10368173;28;20132;-51
2022/06/19 10:59:42;;;;;;;7.13;2.85;;;;;;;;;;10386152;28;20493;-49
2022/06/19 11:05:05;;;;;;;4.47;2.70;;;;;;;;;;10395130;28;20042;-50
2022/06/19 11:10:19;;;;;;;3.53;2.40;;;;;;;;;;10378675;28;20061;-49
2022/06/19 11:15:35;;;;;;;6.70;2.47;;;;;;;;;;10394222;28;20026;-49
2022/06/19 11:20:36;;;;;;;6.60;2.65;;;;;;;;;;10398158;28;20037;-49
2022/06/19 11:25:39;;;;;;;5.22;2.40;;;;;;;;;;10398623;28;20045;-50
2022/06/19 11:30:51;;;;;;;11.90;2.33;;;;;;;;;;10393485;28;20033;-50
2022/06/19 11:35:57;;;;;;;3.50;2.20;;;;;;;;;;10377834;28;20022;-47
2022/06/19 11:40:58;;;;;;;4.10;2.35;;;;;;;;;;10390733;28;20017;-48
2022/06/19 11:46:06;;;;;;;3.03;2.42;;;;;;;;;;10404503;28;20037;-47
2022/06/19 11:51:21;;;;;;;4.18;2.30;;;;;;;;;;10394714;28;20064;-47
2022/06/19 11:56:26;;;;;;;2.90;2.17;;;;;;;;;;10386096;28;20022;-47
2022/06/19 12:01:40;;;;;;;3.10;2.13;;;;;;;;;;10399809;28;20118;-48
2022/06/19 12:06:50;;;;;;;2.97;2.30;;;;;;;;;;10400860;28;20041;-48
2022/06/19 12:12:00;;;;;;;5.93;2.15;;;;;;;;;;10395913;28;20053;-48
2022/06/19 12:17:25;;;;;;;3.55;2.10;;;;;;;;;;10397459;28;20034;-47
2022/06/19 12:22:47;;;;;;;2.42;2.00;;;;;;;;;;10395778;28;20071;-49
2022/06/19 12:28:13;;;;;;;7.47;2.22;;;;;;;;;;10373440;28;20044;-48
2022/06/19 12:33:32;;;;;;;2.40;2.03;;;;;;;;;;10397444;28;20064;-49
2022/06/19 12:38:34;;;;;;;3.15;1.88;;;;;;;;;;10394769;28;20037;-47
2022/06/19 12:43:49;;;;;;;5.10;2.10;;;;;;;;;;10396293;28;20500;-47
2022/06/19 12:49:13;;;;;;;3.13;1.90;;;;;;;;;;10378331;28;20502;-47
2022/06/19 12:54:24;;;;;;;4.60;2.30;;;;;;;;;;10388867;28;20481;-48
2022/06/19 12:59:47;;;;;;;2.03;1.90;;;;;;;;;;10396916;28;20029;-48
2022/06/19 13:05:07;;;;;;;2.10;1.90;;;;;;;;;;10391744;28;20053;-47
2022/06/19 13:10:35;;;;;;;4.38;2.42;;;;;;;;;;10396280;28;20033;-49
2022/06/19 13:16:29;;;;;;;2.10;1.90;;;;;;;;;;10388411;28;20120;-48
2022/06/19 13:22:06;;;;;;;3.45;2.15;;;;;;;;;;10375445;28;20072;-48
2022/06/19 13:27:32;;;;;;;2.47;2.17;;;;;;;;;;10383688;28;20033;-48
2022/06/19 13:33:10;;;;;;;2.40;1.90;;;;;;;;;;10384480;28;20045;-49
2022/06/19 13:38:38;;;;;;;1.88;1.70;;;;;;;;;;10364808;28;20061;-47
2022/06/19 13:44:33;;;;;;;2.75;1.85;;;;;;;;;;10355416;28;20042;-49
2022/06/19 13:49:55;;;;;;;1.85;1.75;;;;;;;;;;10357129;28;20041;-49
2022/06/19 13:55:02;;;;;;;2.25;2.05;;;;;;;;;;10341855;28;20042;-48
2022/06/19 14:00:21;;;;;;;2.47;2.00;;;;;;;;;;10361354;28;20034;-47
2022/06/19 14:05:34;;;;;;;2.33;1.90;;;;;;;;;;10329816;28;20045;-47
2022/06/19 14:10:46;;;;;;;2.17;1.73;;;;;;;;;;10375517;28;20107;-48
2022/06/19 14:15:57;;;;;;;2.53;1.90;;;;;;;;;;10378126;28;20038;-49
2022/06/19 14:21:39;;;;;;;2.33;2.08;;;;;;;;;;10395940;28;20438;-49
2022/06/19 14:27:14;;;;;;;2.83;2.05;;;;;;;;;;10385319;28;20060;-47
2022/06/19 14:32:26;;;;;;;8.55;2.05;;;;;;;;;;10368199;28;20072;-47
2022/06/19 14:37:31;;;;;;;4.82;2.05;;;;;;;;;;10378828;28;20124;-47
2022/06/19 14:43:10;;;;;;;3.33;1.80;;;;;;;;;;10397389;28;20030;-49
2022/06/19 14:48:44;;;;;;;5.97;1.80;;;;;;;;;;10380836;28;20025;-52
2022/06/19 14:54:16;;;;;;;2.85;1.92;;;;;;;;;;10399595;28;20049;-50
2022/06/19 14:59:32;;;;;;;3.72;2.03;;;;;;;;;;10376148;28;20478;-50
2022/06/19 15:04:35;;;;;;;3.40;2.00;;;;;;;;;;10390374;28;20506;-50
2022/06/19 15:09:49;;;;;;;5.47;2.42;;;;;;;;;;10388360;28;20029;-50
2022/06/19 15:14:58;;;;;;;5.32;2.10;;;;;;;;;;10396800;28;20033;-50
2022/06/19 15:20:42;;;;;;;1.55;1.40;;;;;;;;;;10408628;28;20026;-48
2022/06/19 15:25:44;;;;;;;2.53;2.00;;;;;;;;;;10397771;28;20629;-48
2022/06/19 15:30:45;;;;;;;2.78;1.92;;;;;;;;;;10393951;28;20029;-48
2022/06/19 15:35:54;;;;;;;1.77;1.67;;;;;;;;;;10391945;28;20551;-48
2022/06/19 15:40:55;;;;;;;3.15;2.15;;;;;;;;;;10406512;28;20093;-48
2022/06/19 15:46:08;;;;;;;3.80;2.15;;;;;;;;;;10391943;28;20550;-49
2022/06/19 15:51:31;;;;;;;2.20;1.80;;;;;;;;;;10379708;28;20034;-50
2022/06/19 15:56:40;;;;;;;2.10;1.90;;;;;;;;;;10375405;28;20543;-49
2022/06/19 16:01:52;;;;;;;2.42;1.83;;;;;;;;;;10368040;28;20057;-47
2022/06/19 16:07:15;;;;;;;4.22;1.98;;;;;;;;;;10389648;28;20057;-48
2022/06/19 16:12:34;;;;;;;2.75;1.85;;;;;;;;;;10391730;28;20057;-49
2022/06/19 16:17:35;;;;;;;4.70;2.03;;;;;;;;;;10390446;28;20033;-48
2022/06/19 16:22:36;;;;;;;3.25;1.60;;;;;;;;;;10366563;28;20030;-49
2022/06/19 16:27:37;;;;;;;4.05;2.03;;;;;;;;;;10386507;28;20478;-47
2022/06/19 16:32:43;;;;;;;2.47;2.00;;;;;;;;;;10365538;28;20021;-48
2022/06/19 16:48:35;;;;;;;3.17;1.98;;;;;;;;;;10380076;28;20219;-48
2022/06/19 16:53:48;;;;;;;2.78;1.80;;;;;;;;;;10403251;28;20038;-57
2022/06/19 16:58:49;;;;;;;4.10;1.75;;;;;;;;;;10382437;28;20045;-58
2022/06/19 17:03:54;;;;;;;2.03;1.83;;;;;;;;;;10395831;28;20136;-49
2022/06/19 17:09:28;;;;;;;2.67;2.00;;;;;;;;;;10383829;28;20072;-52
2022/06/19 17:14:38;;;;;;;1.90;1.63;;;;;;;;;;10386010;28;20072;-51
2022/06/19 17:20:00;;;;;;;3.50;1.92;;;;;;;;;;10408522;28;20030;-48
2022/06/19 17:25:07;;;;;;;5.00;1.90;;;;;;;;;;10372916;28;20389;-55
2022/06/19 17:30:14;;;;;;;2.03;1.70;;;;;;;;;;10381741;28;20075;-56
2022/06/19 17:35:39;;;;;;;2.00;1.80;;;;;;;;;;10381164;28;20057;-53
2022/06/19 17:40:56;;;;;;;6.05;1.90;;;;;;;;;;10383131;28;20026;-50
2022/06/19 17:45:59;;;;;;;3.25;1.80;;;;;;;;;;10394530;28;20484;-55
2022/06/19 17:51:40;;;;;;;1.55;1.45;;;;;;;;;;10395086;28;20105;-52
2022/06/19 17:57:01;;;;;;;2.22;1.70;;;;;;;;;;10397463;28;20091;-54
2022/06/19 18:02:20;;;;;;;2.00;1.73;;;;;;;;;;10395050;28;20049;-52
2022/06/19 18:07:55;;;;;;;2.92;1.98;;;;;;;;;;10398353;28;20166;-50
2022/06/19 18:13:18;;;;;;;12.73;2.28;;;;;;;;;;10371000;28;20045;-50
2022/06/19 18:23:37;;;;;;;8.55;1.92;;;;;;;;;;10395103;28;20434;-49
2022/06/19 18:28:38;;;;;;;3.53;2.05;;;;;;;;;;10395789;28;20037;-49
2022/06/19 18:33:40;;;;;;;3.75;2.15;;;;;;;;;;10391068;28;20465;-48
2022/06/19 18:38:40;;;;;;;8.88;2.55;;;;;;;;;;10376568;28;20034;-48
2022/06/19 18:43:41;;;;;;;2.40;2.05;;;;;;;;;;10396174;28;20034;-51
2022/06/19 18:48:43;;;;;;;3.20;2.20;;;;;;;;;;10384050;28;20029;-48
2022/06/19 18:53:44;;;;;;;6.93;2.28;;;;;;;;;;10388129;28;20069;-49
2022/06/19 18:58:46;;;;;;;4.10;2.22;;;;;;;;;;10406471;28;20502;-50
2022/06/19 19:03:47;;;;;;;3.95;2.13;;;;;;;;;;10389782;28;20305;-50
2022/06/19 19:08:49;;;;;;;3.45;1.92;;;;;;;;;;10395173;28;20593;-49
2022/06/19 19:13:50;;;;;;;2.85;1.85;;;;;;;;;;10389188;28;20121;-54
2022/06/19 19:18:53;;;;;;;4.07;2.17;;;;;;;;;;10373286;28;20068;-51
2022/06/19 19:23:55;;;;;;;2.28;2.08;;;;;;;;;;10386353;28;20025;-50
2022/06/19 19:29:01;;;;;;;5.78;2.47;;;;;;;;;;10379068;28;20581;-51
2022/06/19 19:34:04;;;;;;;5.20;2.38;;;;;;;;;;10401646;28;20120;-50
2022/06/19 19:39:06;;;;;;;3.00;1.60;;;;;;;;;;10374837;28;20026;-54
2022/06/19 19:44:06;;;;;;;3.95;2.00;;;;;;;;;;10378718;28;20041;-50
2022/06/19 19:49:19;;;;;;;4.10;2.00;;;;;;;;;;10379299;28;20044;-49
2022/06/19 19:54:20;;;;;;;3.83;1.80;;;;;;;;;;10381179;28;20052;-49
2022/06/19 19:59:21;;;;;;;2.33;1.73;;;;;;;;;;10392429;28;20469;-51
2022/06/19 20:04:21;;;;;;;1.77;1.60;;;;;;;;;;10393310;28;20049;-49
2022/06/19 20:14:46;;;;;;;2.30;1.40;;;;;;;;;;10379954;28;20038;-50
2022/06/19 20:19:47;;;;;;;6.95;2.08;;;;;;;;;;10396099;28;20037;-51
2022/06/19 20:25:01;;;;;;;2.15;1.65;;;;;;;;;;10379705;28;20033;-49
2022/06/19 20:30:11;;;;;;;9.48;1.92;;;;;;;;;;10370039;28;20037;-49
2022/06/19 20:35:18;;;;;;;3.97;1.90;;;;;;;;;;10384127;28;20044;-49
2022/06/19 20:40:27;;;;;;;6.80;1.60;;;;;;;;;;10382650;28;20022;-48
2022/06/19 20:45:29;;;;;;;6.63;1.80;;;;;;;;;;10399646;28;20029;-47
2022/06/19 20:50:39;;;;;;;7.97;1.80;;;;;;;;;;10397181;28;20025;-48
2022/06/19 20:55:41;;;;;;;19.38;2.95;;;;;;;;;;10390863;28;20022;-45
2022/06/19 21:00:46;;;;;;;18.90;2.75;;;;;;;;;;10398713;28;20088;-46
2022/06/19 21:05:48;;;;;;;12.52;2.35;;;;;;;;;;10396624;28;20037;-46
2022/06/19 21:10:52;;;;;;;12.35;2.30;;;;;;;;;;10398604;28;20041;-47
2022/06/19 21:15:56;;;;;;;13.05;2.97;;;;;;;;;;10392419;28;20026;-45
2022/06/19 21:21:05;;;;;;;21.70;2.47;;;;;;;;;;10396941;28;20025;-53
2022/06/19 21:26:09;;;;;;;22.40;3.63;;;;;;;;;;10391189;28;20065;-46
2022/06/19 21:31:12;;;;;;;12.85;2.47;;;;;;;;;;10389872;28;20037;-46
2022/06/19 21:36:27;;;;;;;15.00;2.03;;;;;;;;;;10381335;28;20112;-46
2022/06/19 21:41:42;;;;;;;20.67;2.30;;;;;;;;;;10378474;28;20046;-46
2022/06/19 21:46:43;;;;;;;33.53;3.28;;;;;;;;;;10378660;28;20091;-48
2022/06/19 21:51:50;;;;;;;19.65;2.83;;;;;;;;;;10391038;28;20025;-52
2022/06/19 21:56:51;;;;;;;28.83;2.93;;;;;;;;;;10379836;28;20037;-46
2022/06/19 22:01:54;;;;;;;22.23;3.00;;;;;;;;;;10384283;28;20505;-48
2022/06/19 22:06:56;;;;;;;24.70;3.22;;;;;;;;;;10382118;28;20057;-56
2022/06/19 22:17:17;;;;;;;21.98;2.88;;;;;;;;;;10391391;28;20030;-53
2022/06/19 22:22:21;;;;;;;20.48;3.25;;;;;;;;;;10381173;28;20024;-49
2022/06/19 22:27:29;;;;;;;12.88;2.90;;;;;;;;;;10380086;28;20113;-50
2022/06/19 22:32:30;;;;;;;11.70;2.70;;;;;;;;;;10374143;28;20041;-49
2022/06/19 22:37:32;;;;;;;13.40;2.40;;;;;;;;;;10383417;28;20051;-54
2022/06/19 22:42:38;;;;;;;10.10;2.65;;;;;;;;;;10383817;28;20478;-49
2022/06/19 22:47:40;;;;;;;13.52;2.63;;;;;;;;;;10383470;28;20096;-47
2022/06/19 22:52:42;;;;;;;14.35;2.63;;;;;;;;;;10373367;28;20026;-48
2022/06/19 22:57:52;;;;;;;7.80;2.28;;;;;;;;;;10392683;28;20031;-47
2022/06/19 23:02:53;;;;;;;6.93;2.28;;;;;;;;;;10407440;28;20022;-46
2022/06/19 23:07:54;;;;;;;13.88;2.17;;;;;;;;;;10390641;28;20185;-45
2022/06/19 23:12:55;;;;;;;10.13;2.05;;;;;;;;;;10380727;28;20165;-50
2022/06/19 23:17:58;;;;;;;14.73;2.70;;;;;;;;;;10385419;28;20531;-46
2022/06/19 23:23:04;;;;;;;7.10;2.38;;;;;;;;;;10371349;28;20026;-45
2022/06/19 23:28:04;;;;;;;5.55;2.38;;;;;;;;;;10377482;28;20073;-45
2022/06/19 23:33:05;;;;;;;6.43;2.17;;;;;;;;;;10382475;28;20026;-45
2022/06/19 23:38:07;;;;;;;4.55;2.13;;;;;;;;;;10383076;28;20362;-45
2022/06/19 23:43:14;;;;;;;7.85;2.33;;;;;;;;;;10391814;28;20068;-45
2022/06/19 23:48:17;;;;;;;5.88;2.15;;;;;;;;;;10370165;28;20041;-46
2022/06/19 23:53:18;;;;;;;7.03;2.00;;;;;;;;;;10369306;28;20515;-46
2022/06/19 23:58:19;;;;;;;7.07;2.05;;;;;;;;;;10377731;28;20024;-50
